Time;durP1;ratioP1;P1;durP2;ratioP2;P2;SDS_P1;SDS_P2;PMS_P1;PMS_P2;Temp;Humidity;BMP_temperature;BMP_pressure;BME280_temperature;BME280_humidity;BME280_pressure;Samples;Min_cycle;Max_cycle;Signal;HPM_P1;HPM_P2
2022/06/13 00:02:10;;;;;;;5.07;2.83;;;;;;;17.93;60.40;101088.81;5053535;28;20197;-75
2022/06/13 00:04:38;;;;;;;5.57;2.87;;;;;;;17.93;60.10;101094.09;5053927;28;20201;-76
2022/06/13 00:07:05;;;;;;;6.23;3.33;;;;;;;17.75;60.03;101104.41;5053949;28;20651;-76
2022/06/13 00:09:31;;;;;;;6.83;3.53;;;;;;;17.71;59.91;101097.50;5053476;28;20204;-76
2022/06/13 00:11:57;;;;;;;10.07;2.80;;;;;;;17.80;59.72;101097.19;5053344;28;20246;-76
2022/06/13 00:14:24;;;;;;;5.80;2.70;;;;;;;17.89;59.71;101100.41;5053253;28;20227;-76
2022/06/13 00:16:50;;;;;;;7.33;3.10;;;;;;;17.84;59.86;101111.16;5053523;28;20679;-75
2022/06/13 00:19:17;;;;;;;6.67;2.60;;;;;;;17.76;59.90;101107.91;5053521;28;20205;-76
2022/06/13 00:21:45;;;;;;;4.90;2.60;;;;;;;17.78;59.96;101099.00;5053411;28;20565;-76
2022/06/13 00:24:11;;;;;;;4.47;2.77;;;;;;;17.77;60.48;101089.34;5053293;28;20209;-75
2022/06/13 00:26:39;;;;;;;4.30;2.57;;;;;;;17.75;60.61;101079.78;5053072;28;20274;-75
2022/06/13 00:29:06;;;;;;;6.23;2.73;;;;;;;17.70;60.88;101077.31;5052827;28;20204;-76
2022/06/13 00:31:32;;;;;;;7.67;2.80;;;;;;;17.62;61.12;101077.63;5053568;28;20610;-75
2022/06/13 00:33:59;;;;;;;6.47;2.60;;;;;;;17.60;61.41;101070.66;5052825;28;20476;-75
2022/06/13 00:36:25;;;;;;;5.10;2.40;;;;;;;17.56;61.04;101064.66;5052675;28;20224;-75
2022/06/13 00:38:55;;;;;;;7.80;2.73;;;;;;;17.55;61.88;101060.28;5052021;28;20231;-76
2022/06/13 00:41:24;;;;;;;6.67;3.20;;;;;;;17.49;62.45;101041.19;5052872;28;20215;-75
2022/06/13 00:43:51;;;;;;;5.77;3.10;;;;;;;17.44;62.79;101042.22;5052342;28;20189;-76
2022/06/13 00:46:21;;;;;;;3.27;2.20;;;;;;;17.42;63.18;101022.94;5052954;28;20236;-75
2022/06/13 00:48:49;;;;;;;3.70;2.47;;;;;;;17.37;63.82;101001.13;5052856;28;20204;-76
2022/06/13 00:51:16;;;;;;;5.97;2.50;;;;;;;17.40;62.57;101014.22;5053030;28;20278;-75
2022/06/13 00:53:43;;;;;;;6.20;2.70;;;;;;;17.46;62.87;101021.03;5052158;28;20230;-75
2022/06/13 00:56:16;;;;;;;7.40;3.10;;;;;;;17.48;61.86;101029.75;5052820;28;20224;-76
2022/06/13 00:58:46;;;;;;;3.73;2.60;;;;;;;17.53;62.03;101051.56;5052084;28;20675;-75
2022/06/13 01:01:12;;;;;;;6.23;2.80;;;;;;;17.55;61.81;101047.06;5052574;28;20295;-75
2022/06/13 01:03:41;;;;;;;6.17;2.57;;;;;;;17.55;62.04;101044.44;5052581;28;20204;-75
2022/06/13 01:06:08;;;;;;;4.37;2.63;;;;;;;17.58;62.32;101046.09;5052499;28;20730;-75
2022/06/13 01:08:38;;;;;;;5.23;2.57;;;;;;;17.57;63.12;101020.63;5052351;28;20204;-76
2022/06/13 01:11:19;;;;;;;3.73;2.80;;;;;;;17.53;63.04;101014.59;5044432;28;20726;-75
2022/06/13 01:14:04;;;;;;;3.97;2.50;;;;;;;17.47;62.97;101017.47;5052304;28;20665;-75
2022/06/13 01:16:42;;;;;;;4.90;2.23;;;;;;;17.36;63.97;101006.47;5052448;28;20224;-75
2022/06/13 01:19:55;;;;;;;4.73;2.73;;;;;;;17.27;64.10;100987.44;5052341;28;20192;-75
2022/06/13 01:22:47;;;;;;;3.50;2.23;;;;;;;17.26;63.76;100998.91;5023860;28;20737;-75
2022/06/13 01:25:50;;;;;;;4.70;2.67;;;;;;;17.21;63.73;100992.09;5042653;28;20230;-75
2022/06/13 01:29:05;;;;;;;5.03;2.70;;;;;;;17.19;64.43;100983.38;5044914;28;20209;-75
2022/06/13 01:31:40;;;;;;;3.33;2.47;;;;;;;17.12;64.14;100977.44;4988348;28;20245;-75
2022/06/13 01:34:16;;;;;;;4.20;2.50;;;;;;;17.06;64.39;100969.75;5035221;28;20271;-75
2022/06/13 01:36:50;;;;;;;5.00;2.97;;;;;;;17.05;64.49;100968.06;5052221;28;20228;-75
2022/06/13 01:39:32;;;;;;;4.23;2.77;;;;;;;17.05;63.87;100979.47;5043249;28;20270;-75
2022/06/13 01:42:10;;;;;;;5.53;2.87;;;;;;;17.02;64.04;100984.00;5051807;28;20631;-75
2022/06/13 01:44:46;;;;;;;7.17;2.93;;;;;;;17.03;63.83;100978.66;5051789;28;20187;-75
2022/06/13 01:47:23;;;;;;;4.23;2.50;;;;;;;17.04;64.00;100984.78;5051431;28;20235;-75
2022/06/13 01:49:59;;;;;;;8.53;3.07;;;;;;;16.97;64.13;100984.16;5051329;28;20607;-75
2022/06/13 01:52:34;;;;;;;4.10;2.43;;;;;;;16.92;63.99;100978.19;5043979;28;20250;-75
2022/06/13 01:55:10;;;;;;;5.40;3.13;;;;;;;16.81;64.66;100972.44;5051448;28;20239;-75
2022/06/13 01:57:44;;;;;;;5.60;2.50;;;;;;;16.64;65.35;100957.22;5051577;28;20204;-75
2022/06/13 02:00:14;;;;;;;6.17;2.40;;;;;;;16.62;65.50;100943.22;5051106;28;20200;-75
2022/06/13 02:02:49;;;;;;;5.27;2.63;;;;;;;16.45;65.82;100943.81;5051520;28;20610;-75
2022/06/13 02:05:21;;;;;;;3.77;2.30;;;;;;;16.53;65.65;100925.09;5051540;28;20280;-75
2022/06/13 02:07:53;;;;;;;4.60;2.60;;;;;;;16.57;65.54;100931.97;5051231;28;20642;-75
2022/06/13 02:10:24;;;;;;;6.00;2.57;;;;;;;16.59;65.29;100938.06;5051153;28;20247;-75
2022/06/13 02:12:54;;;;;;;6.53;3.03;;;;;;;16.58;65.31;100936.34;5051413;28;20601;-75
2022/06/13 02:15:24;;;;;;;4.73;2.67;;;;;;;16.36;65.91;100929.19;5051255;28;20254;-75
2022/06/13 02:17:57;;;;;;;5.50;2.93;;;;;;;16.21;66.60;100912.16;5051119;28;20200;-75
2022/06/13 02:20:29;;;;;;;5.97;2.67;;;;;;;16.20;66.21;100896.41;5051258;28;20211;-75
2022/06/13 02:23:01;;;;;;;3.07;2.20;;;;;;;16.22;65.84;100903.34;5051585;28;20247;-75
2022/06/13 02:25:32;;;;;;;4.57;2.57;;;;;;;16.02;67.16;100890.88;5051288;28;20228;-75
2022/06/13 02:28:05;;;;;;;5.60;3.30;;;;;;;16.04;66.93;100861.84;5051560;28;20257;-75
2022/06/13 02:30:39;;;;;;;5.03;2.83;;;;;;;16.11;66.19;100887.03;5050521;28;20702;-75
2022/06/13 02:33:11;;;;;;;5.90;2.67;;;;;;;16.16;65.78;100914.09;5051578;28;20192;-75
2022/06/13 02:35:41;;;;;;;5.50;2.80;;;;;;;16.13;65.58;100910.69;5051339;28;20283;-75
2022/06/13 02:38:13;;;;;;;5.47;2.90;;;;;;;16.03;66.02;100934.69;5050982;28;20200;-75
2022/06/13 02:40:45;;;;;;;6.17;2.97;;;;;;;16.05;66.30;100919.75;5050751;28;20200;-75
2022/06/13 02:43:20;;;;;;;4.07;2.80;;;;;;;16.03;66.58;100915.41;5050680;28;20551;-75
2022/06/13 02:45:53;;;;;;;5.40;2.40;;;;;;;15.78;67.61;100879.41;5051042;28;20798;-75
2022/06/13 02:48:28;;;;;;;6.70;2.60;;;;;;;15.66;68.30;100864.00;5051377;28;20252;-75
2022/06/13 02:51:02;;;;;;;4.57;2.87;;;;;;;15.71;67.94;100858.56;5050552;28;20709;-75
2022/06/13 02:53:36;;;;;;;6.73;2.60;;;;;;;15.70;67.73;100862.97;5051135;28;20207;-75
2022/06/13 02:56:14;;;;;;;6.03;3.97;;;;;;;15.67;67.58;100871.81;5044012;28;20217;-75
2022/06/13 02:58:52;;;;;;;4.57;2.63;;;;;;;15.57;68.24;100869.53;5050733;28;20204;-75
2022/06/13 03:01:25;;;;;;;5.17;2.70;;;;;;;15.51;68.78;100840.81;5050061;28;20655;-75
2022/06/13 03:04:02;;;;;;;6.27;3.00;;;;;;;15.54;68.92;100836.31;5054277;28;20196;-75
2022/06/13 03:06:33;;;;;;;8.47;2.90;;;;;;;15.56;68.92;100831.84;5054727;28;20638;-75
2022/06/13 03:09:04;;;;;;;5.47;3.00;;;;;;;15.63;68.61;100837.75;5054557;28;20200;-75
2022/06/13 03:11:39;;;;;;;7.37;2.80;;;;;;;15.62;68.64;100833.41;5054687;28;20207;-75
2022/06/13 03:14:30;;;;;;;5.13;2.77;;;;;;;15.66;69.09;100835.88;5046803;28;20211;-75
2022/06/13 03:17:02;;;;;;;4.13;2.53;;;;;;;15.72;68.73;100842.72;5054692;28;20231;-75
2022/06/13 03:19:36;;;;;;;8.00;3.70;;;;;;;15.74;68.54;100842.69;5054566;28;20204;-75
2022/06/13 03:22:07;;;;;;;5.97;2.73;;;;;;;15.64;69.27;100832.44;5054457;28;20206;-75
2022/06/13 03:24:42;;;;;;;4.37;3.20;;;;;;;15.71;69.19;100827.81;5054164;28;20715;-75
2022/06/13 03:27:14;;;;;;;5.37;3.00;;;;;;;15.57;70.50;100809.03;5054348;28;20297;-75
2022/06/13 03:29:47;;;;;;;6.57;3.40;;;;;;;15.47;70.99;100784.78;5054393;28;20656;-75
2022/06/13 03:32:18;;;;;;;5.83;2.90;;;;;;;15.59;70.85;100786.16;5050019;28;20262;-75
2022/06/13 03:34:50;;;;;;;6.00;3.37;;;;;;;15.65;70.38;100807.84;5054090;28;20220;-75
2022/06/13 03:37:20;;;;;;;5.30;3.00;;;;;;;15.71;70.61;100808.56;5046233;28;20701;-75
2022/06/13 03:39:51;;;;;;;4.63;3.33;;;;;;;15.70;70.62;100805.06;5054048;28;20605;-75
2022/06/13 03:42:24;;;;;;;9.50;3.73;;;;;;;15.62;71.38;100804.47;5045508;28;20203;-75
2022/06/13 03:44:57;;;;;;;9.23;4.23;;;;;;;15.15;73.46;100777.97;5054248;28;20191;-75
2022/06/13 03:47:30;;;;;;;7.77;4.00;;;;;;;14.68;75.70;100734.72;5046605;28;20195;-75
2022/06/13 03:50:03;;;;;;;11.97;4.37;;;;;;;14.72;76.32;100663.69;5053962;28;20197;-75
2022/06/13 03:52:35;;;;;;;7.50;3.40;;;;;;;14.92;75.87;100660.41;5054359;28;20192;-75
2022/06/13 03:55:07;;;;;;;7.40;3.93;;;;;;;14.93;75.18;100684.03;5053409;28;20203;-75
2022/06/13 03:57:37;;;;;;;7.83;4.00;;;;;;;15.08;74.57;100699.28;5044759;28;20199;-75
2022/06/13 04:00:10;;;;;;;5.00;3.57;;;;;;;15.01;75.07;100697.78;5047304;28;20623;-75
2022/06/13 04:02:39;;;;;;;6.17;3.70;;;;;;;15.13;75.52;100693.03;5049654;28;20282;-75
2022/06/13 04:05:15;;;;;;;8.80;3.80;;;;;;;15.25;74.49;100703.97;5045032;28;20208;-75
2022/06/13 04:07:43;;;;;;;9.80;3.77;;;;;;;15.30;74.39;100711.69;5043876;28;20299;-75
2022/06/13 04:10:13;;;;;;;5.27;3.70;;;;;;;15.40;74.35;100714.88;5044795;28;20250;-75
2022/06/13 04:12:56;;;;;;;5.63;3.73;;;;;;;15.53;74.24;100715.31;5043447;28;20184;-75
2022/06/13 04:15:33;;;;;;;5.30;3.83;;;;;;;15.49;73.34;100731.19;5042044;28;20228;-75
2022/06/13 04:18:06;;;;;;;6.47;3.90;;;;;;;15.11;74.82;100735.13;5043240;28;20618;-75
2022/06/13 04:20:48;;;;;;;7.87;4.90;;;;;;;15.09;74.93;100698.38;5042502;28;20221;-75
2022/06/13 04:23:21;;;;;;;6.97;4.03;;;;;;;15.28;73.67;100705.63;5046686;28;20212;-75
2022/06/13 04:25:54;;;;;;;7.40;4.67;;;;;;;15.46;73.45;100723.44;5046586;28;20240;-75
2022/06/13 04:28:25;;;;;;;6.10;3.73;;;;;;;15.40;72.99;100742.06;5039340;28;20199;-76
2022/06/13 04:30:55;;;;;;;4.63;3.53;;;;;;;15.15;72.68;100751.69;5050425;28;20208;-75
2022/06/13 04:33:28;;;;;;;7.43;3.67;;;;;;;15.07;72.62;100765.06;5046920;28;20632;-75
2022/06/13 04:35:57;;;;;;;9.33;4.70;;;;;;;14.93;73.58;100746.25;5049451;28;20297;-75
2022/06/13 04:38:24;;;;;;;6.63;3.97;;;;;;;14.80;74.60;100725.59;5043713;28;20198;-75
2022/06/13 04:40:55;;;;;;;7.77;4.43;;;;;;;14.58;75.70;100712.28;5043941;28;20195;-75
2022/06/13 04:43:27;;;;;;;7.67;5.00;;;;;;;14.65;75.26;100684.06;5043597;28;20213;-75
2022/06/13 04:45:58;;;;;;;6.30;3.87;;;;;;;14.64;74.99;100690.22;5044816;28;20224;-75
2022/06/13 04:48:26;;;;;;;7.33;3.03;;;;;;;14.84;74.97;100694.84;5044460;28;20203;-75
2022/06/13 04:51:00;;;;;;;7.13;3.60;;;;;;;14.92;74.29;100705.94;5045595;28;20200;-75
2022/06/13 04:53:30;;;;;;;8.00;3.97;;;;;;;15.12;74.04;100712.31;5042567;28;20255;-75
2022/06/13 04:55:59;;;;;;;4.63;3.17;;;;;;;15.27;73.82;100723.19;5041319;28;20273;-75
2022/06/13 04:58:29;;;;;;;5.40;3.73;;;;;;;15.36;73.75;100729.03;5048328;28;20290;-76
2022/06/13 05:01:00;;;;;;;6.90;3.77;;;;;;;15.43;73.87;100720.88;5048628;28;20199;-76
2022/06/13 05:03:29;;;;;;;10.07;3.77;;;;;;;15.52;73.48;100729.38;5052786;28;20282;-75
2022/06/13 05:06:02;;;;;;;7.27;3.63;;;;;;;15.55;73.63;100734.53;5045043;28;20226;-75
2022/06/13 05:08:31;;;;;;;4.80;3.33;;;;;;;15.63;72.69;100753.56;5052088;28;20194;-75
2022/06/13 05:11:04;;;;;;;5.47;3.37;;;;;;;15.71;72.32;100772.56;5044134;28;20287;-75
2022/06/13 05:13:30;;;;;;;6.33;3.70;;;;;;;15.54;71.58;100799.47;5052413;28;20222;-75
2022/06/13 05:16:06;;;;;;;13.07;3.80;;;;;;;15.44;72.06;100813.81;5044452;28;20237;-75
2022/06/13 05:18:53;;;;;;;8.00;3.93;;;;;;;15.27;72.78;100791.56;5052164;28;20210;-75
2022/06/13 05:21:32;;;;;;;6.47;3.20;;;;;;;15.27;73.31;100767.91;5052242;28;20194;-75
2022/06/13 05:24:31;;;;;;;9.10;3.80;;;;;;;15.41;73.28;100763.97;5043779;28;20252;-75
2022/06/13 05:26:58;;;;;;;5.30;3.37;;;;;;;15.42;73.51;100776.19;5052162;28;20223;-75
2022/06/13 05:29:25;;;;;;;10.13;3.73;;;;;;;15.43;73.35;100773.50;5052008;28;20218;-75
2022/06/13 05:31:53;;;;;;;8.27;3.70;;;;;;;15.56;73.43;100767.81;5051680;28;20198;-75
2022/06/13 05:34:31;;;;;;;4.90;3.47;;;;;;;15.71;72.87;100775.19;5051842;28;20643;-75
2022/06/13 05:36:59;;;;;;;8.93;3.97;;;;;;;15.77;72.90;100779.41;5051943;28;20230;-75
2022/06/13 05:39:26;;;;;;;6.80;3.47;;;;;;;15.87;72.96;100767.66;5051123;28;20587;-75
2022/06/13 05:41:52;;;;;;;8.27;3.47;;;;;;;15.82;72.75;100794.16;5051546;28;20207;-75
2022/06/13 05:44:19;;;;;;;6.97;3.70;;;;;;;15.90;72.56;100780.72;5051838;28;20243;-75
2022/06/13 05:46:45;;;;;;;5.23;3.47;;;;;;;15.98;72.13;100796.25;5051565;28;20755;-75
2022/06/13 05:49:13;;;;;;;6.47;4.03;;;;;;;16.08;71.96;100810.78;5055505;28;20204;-77
2022/06/13 05:51:41;;;;;;;8.77;3.47;;;;;;;16.18;71.94;100822.72;5061244;28;20210;-79
2022/06/13 05:54:10;;;;;;;8.67;3.37;;;;;;;16.17;71.51;100830.66;5051883;28;20194;-78
2022/06/13 05:56:37;;;;;;;6.37;3.47;;;;;;;16.29;71.18;100835.47;5060429;28;20224;-78
2022/06/13 05:59:04;;;;;;;7.53;3.20;;;;;;;16.31;71.08;100849.44;5054682;28;20293;-77
2022/06/13 06:01:32;;;;;;;7.17;3.77;;;;;;;16.34;71.07;100837.97;5049294;28;20718;-77
2022/06/13 06:03:58;;;;;;;4.83;3.33;;;;;;;16.00;72.45;100820.75;5050044;28;20269;-76
2022/06/13 06:06:28;;;;;;;4.13;3.37;;;;;;;16.07;72.49;100804.69;5046847;28;20229;-77
2022/06/13 06:08:55;;;;;;;7.47;4.60;;;;;;;15.67;73.98;100790.22;5044547;28;20196;-77
2022/06/13 06:11:25;;;;;;;9.00;4.10;;;;;;;15.45;74.06;100787.47;5041475;28;20204;-77
2022/06/13 06:13:51;;;;;;;5.43;3.80;;;;;;;15.46;74.40;100760.25;5038868;28;20204;-77
2022/06/13 06:16:20;;;;;;;5.60;3.47;;;;;;;15.54;73.57;100769.66;5046799;28;20258;-77
2022/06/13 06:18:47;;;;;;;6.67;4.07;;;;;;;15.56;73.62;100789.75;5051595;28;20206;-77
2022/06/13 06:21:14;;;;;;;6.63;3.43;;;;;;;15.62;72.34;100805.31;5043661;28;20208;-76
2022/06/13 06:23:40;;;;;;;7.17;3.47;;;;;;;15.78;72.30;100815.38;5052006;28;20198;-76
2022/06/13 06:26:08;;;;;;;6.90;3.80;;;;;;;15.55;73.43;100809.06;5050961;28;20216;-77
2022/06/13 06:28:35;;;;;;;6.50;4.00;;;;;;;15.79;72.63;100810.03;5051778;28;20704;-77
2022/06/13 06:31:03;;;;;;;6.83;3.50;;;;;;;15.60;71.97;100841.38;5051981;28;20204;-78
2022/06/13 06:33:29;;;;;;;5.87;3.90;;;;;;;15.71;72.59;100830.47;5055465;28;20216;-77
2022/06/13 06:35:56;;;;;;;10.73;3.63;;;;;;;15.75;72.79;100829.47;5053730;28;20225;-77
2022/06/13 06:38:25;;;;;;;6.07;3.40;;;;;;;15.02;75.47;100809.88;5056412;28;20487;-77
2022/06/13 06:40:51;;;;;;;9.10;4.13;;;;;;;15.22;76.49;100738.28;5058259;28;20202;-79
2022/06/13 06:43:18;;;;;;;6.70;3.03;;;;;;;15.31;75.90;100736.25;5057729;28;20256;-75
2022/06/13 06:45:46;;;;;;;5.37;3.73;;;;;;;15.48;75.09;100757.59;5055403;28;20756;-77
2022/06/13 06:48:14;;;;;;;5.63;3.63;;;;;;;15.76;73.65;100773.31;5056104;28;20208;-78
2022/06/13 06:50:43;;;;;;;6.13;3.43;;;;;;;15.82;72.29;100836.25;5056177;28;20210;-78
2022/06/13 06:53:10;;;;;;;6.68;4.20;;;;;;;15.99;72.64;100842.72;5056365;28;21064;-76
2022/06/13 07:01:09;;;;;;;5.80;3.97;;;;;;;15.69;73.92;100796.28;5059228;28;20219;-78
2022/06/13 07:03:36;;;;;;;7.53;3.80;;;;;;;15.74;72.73;100834.78;5059937;28;20688;-77
2022/06/13 07:06:04;;;;;;;7.47;3.63;;;;;;;15.80;72.34;100831.97;5058504;28;20227;-77
2022/06/13 07:08:30;;;;;;;5.77;4.50;;;;;;;15.34;71.69;100876.41;5059811;28;20197;-78
2022/06/13 07:11:53;;;;;;;7.87;3.70;;;;;;;15.56;72.01;100859.91;5058814;28;20230;-78
2022/06/13 07:13:48;;;;;;;4.23;3.10;;;;;;;15.68;70.62;100878.81;5052459;28;20206;-77
2022/06/13 07:16:16;;;;;;;5.87;4.17;;;;;;;15.78;70.78;100900.47;5056531;28;20236;-77
2022/06/13 07:18:45;;;;;;;8.47;2.83;;;;;;;15.87;70.80;100897.50;5055797;28;20196;-77
2022/06/13 07:21:11;;;;;;;7.23;3.77;;;;;;;15.65;70.69;100907.84;5065880;28;20669;-78
2022/06/13 07:23:38;;;;;;;6.10;3.07;;;;;;;15.89;70.29;100910.63;5067950;28;20204;-78
2022/06/13 07:26:05;;;;;;;6.30;3.03;;;;;;;15.62;70.48;100933.44;5068583;28;20199;-77
2022/06/13 07:28:32;;;;;;;4.57;3.27;;;;;;;15.63;71.15;100911.44;5060372;28;20230;-79
2022/06/13 07:30:58;;;;;;;5.27;3.70;;;;;;;15.49;71.00;100889.06;5069423;28;20204;-79
2022/06/13 07:33:26;;;;;;;7.03;2.97;;;;;;;15.54;70.69;100870.50;5069267;28;20223;-79
2022/06/13 07:35:53;;;;;;;4.83;2.97;;;;;;;15.64;70.12;100918.44;5068457;28;20232;-78
2022/06/13 07:38:19;;;;;;;6.77;3.13;;;;;;;15.67;67.58;100963.06;5064428;28;20211;-78
2022/06/13 07:40:49;;;;;;;9.07;3.43;;;;;;;15.71;67.56;100995.41;5066577;28;20201;-78
2022/06/13 07:43:26;;;;;;;7.97;4.30;;;;;;;15.67;68.28;100995.50;5064709;28;20231;-78
2022/06/13 07:45:53;;;;;;;7.60;3.27;;;;;;;15.92;68.69;100962.34;5066028;28;20219;-78
2022/06/13 07:48:19;;;;;;;7.07;2.97;;;;;;;16.04;67.82;100962.78;5066559;28;20692;-79
2022/06/13 07:50:48;;;;;;;7.33;3.10;;;;;;;15.99;67.05;100993.66;5066786;28;20261;-78
2022/06/13 07:53:14;;;;;;;6.10;3.40;;;;;;;16.09;68.18;100994.22;5066140;28;20199;-78
2022/06/13 07:55:41;;;;;;;6.23;3.20;;;;;;;16.12;66.97;101009.94;5068350;28;20228;-79
2022/06/13 07:58:13;;;;;;;9.90;3.13;;;;;;;16.28;66.64;101016.41;5068201;28;20256;-79
2022/06/13 08:00:41;;;;;;;7.60;3.40;;;;;;;16.33;66.34;101026.78;5061618;28;20238;-78
2022/06/13 08:03:07;;;;;;;8.87;3.20;;;;;;;16.22;64.85;101050.00;5067889;28;20208;-79
2022/06/13 08:05:34;;;;;;;6.50;2.50;;;;;;;16.34;64.78;101073.31;5067040;28;20293;-78
2022/06/13 08:08:02;;;;;;;5.40;3.20;;;;;;;16.61;64.90;101060.09;5067633;28;20200;-78
2022/06/13 08:10:28;;;;;;;4.17;2.37;;;;;;;16.50;63.84;101085.97;5067379;28;20208;-78
2022/06/13 08:12:55;;;;;;;6.57;2.63;;;;;;;16.75;62.81;101118.50;5066133;28;20199;-79
2022/06/13 08:15:24;;;;;;;3.47;2.40;;;;;;;16.91;62.32;101147.91;5068899;28;20238;-79
2022/06/13 08:17:50;;;;;;;3.00;2.27;;;;;;;16.86;61.66;101178.81;5069635;28;20199;-78
2022/06/13 08:20:17;;;;;;;4.30;2.63;;;;;;;16.60;62.12;101191.03;5069509;28;20207;-79
2022/06/13 08:22:45;;;;;;;4.37;2.40;;;;;;;16.53;62.12;101184.25;5069266;28;20230;-78
2022/06/13 08:25:19;;;;;;;5.37;2.33;;;;;;;16.26;61.26;101186.84;5067531;28;20199;-80
2022/06/13 08:27:46;;;;;;;3.90;2.10;;;;;;;16.03;61.86;101184.03;5068125;28;20204;-79
2022/06/13 08:30:14;;;;;;;4.80;2.83;;;;;;;16.07;64.15;101154.06;5069260;28;20208;-79
2022/06/13 08:32:40;;;;;;;5.17;2.20;;;;;;;16.16;62.41;101134.50;5067581;28;20204;-78
2022/06/13 08:35:07;;;;;;;2.60;1.97;;;;;;;16.31;61.36;101160.34;5068070;28;20199;-78
2022/06/13 08:37:34;;;;;;;4.67;1.83;;;;;;;16.57;61.30;101175.34;5069473;28;20208;-79
2022/06/13 08:40:00;;;;;;;5.53;2.50;;;;;;;16.97;61.16;101181.13;5068300;28;20226;-78
2022/06/13 08:42:34;;;;;;;3.07;2.20;;;;;;;17.04;57.43;101203.72;5068803;28;20211;-78
2022/06/13 08:45:05;;;;;;;3.60;2.13;;;;;;;16.93;57.47;101283.22;5070043;28;20218;-78
2022/06/13 08:47:46;;;;;;;3.37;1.77;;;;;;;16.96;58.21;101304.19;5070358;28;20208;-78
2022/06/13 08:50:37;;;;;;;4.40;2.43;;;;;;;16.85;59.38;101282.59;5061751;28;20192;-78
2022/06/13 08:53:10;;;;;;;3.83;1.93;;;;;;;16.85;59.63;101250.94;5062345;28;20197;-78
2022/06/13 08:55:43;;;;;;;4.47;2.20;;;;;;;16.88;57.87;101275.41;5065958;28;20235;-81
2022/06/13 08:58:19;;;;;;;4.10;2.10;;;;;;;16.82;57.53;101294.06;5069264;28;20217;-79
2022/06/13 09:00:51;;;;;;;3.17;1.87;;;;;;;17.03;58.17;101295.19;5069710;28;20210;-78
2022/06/13 09:03:24;;;;;;;5.10;1.97;;;;;;;17.21;57.38;101298.16;5071476;28;20208;-79
2022/06/13 09:05:55;;;;;;;4.77;2.40;;;;;;;17.18;55.82;101320.19;5071241;28;20224;-79
2022/06/13 09:08:29;;;;;;;2.70;2.23;;;;;;;16.99;55.20;101353.38;5071095;28;20192;-80
2022/06/13 09:11:06;;;;;;;5.30;1.90;;;;;;;16.87;55.31;101365.16;5069778;28;20273;-78
2022/06/13 09:13:39;;;;;;;6.17;2.63;;;;;;;16.90;55.90;101359.78;5070536;28;20202;-78
2022/06/13 09:16:11;;;;;;;3.00;1.63;;;;;;;17.28;55.47;101347.16;5063291;28;20224;-79
2022/06/13 09:18:45;;;;;;;3.20;2.07;;;;;;;17.50;53.48;101346.44;5053326;28;20199;-79
2022/06/13 09:21:20;;;;;;;5.13;2.20;;;;;;;17.34;53.65;101417.34;5060257;28;20188;-80
2022/06/13 09:23:54;;;;;;;2.63;1.70;;;;;;;17.10;53.78;101440.09;5061086;28;20211;-79
2022/06/13 09:26:26;;;;;;;4.43;2.67;;;;;;;17.24;54.79;101401.81;5057423;28;20228;-78
2022/06/13 09:28:58;;;;;;;3.27;1.60;;;;;;;17.22;54.51;101390.47;5059415;28;20611;-79
2022/06/13 09:31:31;;;;;;;3.60;1.60;;;;;;;17.23;52.91;101375.47;5053803;28;20200;-79
2022/06/13 09:34:07;;;;;;;5.57;1.90;;;;;;;17.53;55.83;101396.53;5053606;28;20614;-79
2022/06/13 09:36:36;;;;;;;4.17;1.70;;;;;;;17.50;55.13;101372.84;5052431;28;20238;-78
2022/06/13 09:39:06;;;;;;;2.30;1.50;;;;;;;17.72;55.33;101362.44;5061866;28;20235;-78
2022/06/13 09:41:48;;;;;;;2.20;1.30;;;;;;;17.76;53.09;101385.19;5060956;28;20222;-79
2022/06/13 09:44:27;;;;;;;2.23;1.60;;;;;;;17.92;51.57;101406.69;5060075;28;20634;-78
2022/06/13 09:47:04;;;;;;;8.10;1.90;;;;;;;17.84;51.67;101475.66;5060842;28;20228;-78
2022/06/13 09:49:39;;;;;;;3.73;1.67;;;;;;;17.73;51.58;101483.88;5053059;28;20193;-78
2022/06/13 09:52:15;;;;;;;3.57;1.47;;;;;;;17.60;49.67;101458.75;5063117;28;20195;-79
2022/06/13 09:54:50;;;;;;;3.50;1.63;;;;;;;17.70;50.11;101493.66;5069067;28;20282;-79
2022/06/13 09:57:33;;;;;;;1.60;1.20;;;;;;;17.88;49.68;101501.03;5059631;28;20593;-80
2022/06/13 10:00:10;;;;;;;3.67;1.70;;;;;;;17.75;51.01;101500.53;5065626;28;20262;-79
2022/06/13 10:02:46;;;;;;;4.57;1.63;;;;;;;17.89;50.86;101483.41;5065057;28;20212;-79
2022/06/13 10:05:24;;;;;;;2.60;1.77;;;;;;;17.75;49.99;101513.72;5065027;28;20290;-78
2022/06/13 10:08:03;;;;;;;4.60;1.47;;;;;;;17.36;48.32;101542.22;5064653;28;20205;-78
2022/06/13 10:10:37;;;;;;;2.60;1.30;;;;;;;16.97;51.04;101622.47;5056449;28;20621;-78
2022/06/13 10:13:15;;;;;;;6.43;2.00;;;;;;;16.31;55.65;101587.16;5064524;28;20222;-78
2022/06/13 10:15:54;;;;;;;4.73;1.37;;;;;;;15.64;58.81;101419.34;5062446;28;20224;-78
2022/06/13 10:18:41;;;;;;;2.20;1.10;;;;;;;15.24;61.28;101336.13;5064135;28;20221;-78
2022/06/13 10:21:15;;;;;;;2.87;1.20;;;;;;;15.08;62.54;101234.81;5065061;28;20202;-78
2022/06/13 10:23:52;;;;;;;2.37;1.30;;;;;;;14.94;63.62;101197.47;5064795;28;20194;-78
2022/06/13 10:26:29;;;;;;;1.80;0.90;;;;;;;14.93;64.10;101159.81;5064693;28;20229;-79
2022/06/13 10:29:09;;;;;;;1.93;1.80;;;;;;;14.69;64.45;101142.91;5063581;28;20203;-78
2022/06/13 10:31:54;;;;;;;2.53;1.03;;;;;;;14.97;64.28;101129.06;5061211;28;20254;-79
2022/06/13 10:34:27;;;;;;;2.07;1.10;;;;;;;14.95;63.10;101160.66;5067078;28;20202;-78
2022/06/13 10:37:04;;;;;;;2.67;1.17;;;;;;;14.97;62.50;101161.47;5065973;28;20268;-78
2022/06/13 10:39:32;;;;;;;1.30;1.13;;;;;;;15.49;61.53;101165.34;5065979;28;20194;-79
2022/06/13 10:42:04;;;;;;;1.20;1.00;;;;;;;15.78;60.24;101200.53;5062969;28;20211;-79
2022/06/13 10:44:32;;;;;;;1.33;1.10;;;;;;;15.92;58.68;101236.16;5057668;28;20227;-79
2022/06/13 10:47:06;;;;;;;2.10;1.10;;;;;;;16.13;58.22;101261.00;5053716;28;20510;-78
2022/06/13 10:49:39;;;;;;;1.37;1.17;;;;;;;16.08;57.32;101295.38;5064527;28;20193;-78
2022/06/13 10:52:13;;;;;;;1.50;0.93;;;;;;;16.10;58.23;101332.22;5065014;28;20222;-78
2022/06/13 10:54:45;;;;;;;2.10;1.00;;;;;;;15.85;60.63;101315.28;5065008;28;20208;-78
2022/06/13 10:57:15;;;;;;;2.47;1.17;;;;;;;15.60;64.49;101245.75;5063835;28;20235;-79
2022/06/13 10:59:42;;;;;;;3.20;1.63;;;;;;;15.21;71.63;101054.75;5057812;28;20217;-79
2022/06/13 11:02:25;;;;;;;3.37;1.90;;;;;;;15.02;74.89;100894.03;5055808;28;20201;-77
2022/06/13 11:05:06;;;;;;;3.37;2.10;;;;;;;14.41;79.88;100731.16;5051910;28;20293;-77
2022/06/13 11:07:34;;;;;;;3.10;2.33;;;;;;;14.17;80.33;100653.13;5052498;28;20281;-77
2022/06/13 11:10:02;;;;;;;3.67;1.90;;;;;;;14.13;81.38;100639.22;5056519;28;20281;-78
2022/06/13 11:12:31;;;;;;;3.00;2.60;;;;;;;14.25;81.16;100625.75;5058241;28;20202;-78
2022/06/13 11:23:21;;;;;;;2.47;1.80;;;;;;;14.73;71.35;100873.88;5060127;28;20216;-77
2022/06/13 11:25:56;;;;;;;4.97;2.20;;;;;;;14.71;70.79;100954.53;5058438;28;20271;-77
2022/06/13 11:28:25;;;;;;;2.43;1.67;;;;;;;14.76;70.61;100942.09;5059049;28;20209;-78
2022/06/13 11:30:53;;;;;;;2.83;1.93;;;;;;;14.64;71.68;100952.97;5060022;28;20205;-77
2022/06/13 11:33:34;;;;;;;2.90;1.73;;;;;;;14.49;70.81;100941.94;5057740;28;20246;-78
2022/06/13 11:36:04;;;;;;;2.03;1.40;;;;;;;14.41;68.91;101016.56;5055690;28;20217;-77
2022/06/13 11:38:32;;;;;;;1.90;1.40;;;;;;;14.21;70.30;101038.97;5055347;28;20270;-77
2022/06/13 11:41:15;;;;;;;2.07;1.77;;;;;;;14.30;70.57;101012.47;5052331;28;20616;-76
2022/06/13 11:43:46;;;;;;;2.40;1.70;;;;;;;14.48;71.01;100997.13;5045341;28;20710;-77
2022/06/13 11:46:31;;;;;;;2.87;1.93;;;;;;;14.64;70.10;101001.09;5046636;28;20228;-76
2022/06/13 11:49:04;;;;;;;2.90;1.60;;;;;;;14.46;70.53;100998.94;5047360;28;20198;-77
2022/06/13 11:51:40;;;;;;;1.53;1.43;;;;;;;14.86;71.84;100990.00;5045893;28;20274;-76
2022/06/13 11:54:06;;;;;;;1.83;1.20;;;;;;;15.50;70.84;100968.88;5043542;28;20207;-77
2022/06/13 11:56:34;;;;;;;1.80;0.77;;;;;;;16.12;68.14;101048.59;5042481;28;20222;-77
2022/06/13 11:59:05;;;;;;;3.30;1.00;;;;;;;15.92;64.71;101141.38;5046008;28;20206;-76
2022/06/13 12:01:34;;;;;;;0.80;0.63;;;;;;;15.76;62.72;101225.19;5047805;28;20198;-77